createdAt,value
2023-03-10T00:04:19.465Z,13.21
2023-03-10T00:06:48.110Z,13.18
2023-03-10T00:09:15.650Z,13.16
2023-03-10T00:11:43.273Z,12.99
2023-03-10T00:15:12.021Z,13.04
2023-03-10T00:17:40.033Z,12.95
2023-03-10T00:20:11.853Z,12.88
2023-03-10T00:22:41.912Z,12.84
2023-03-10T00:26:05.228Z,13.01
2023-03-10T00:29:23.591Z,12.80
2023-03-10T00:31:51.215Z,12.69
2023-03-10T00:34:18.828Z,12.77
2023-03-10T00:36:46.393Z,12.78
2023-03-10T00:39:14.467Z,12.77
2023-03-10T00:42:22.881Z,12.91
2023-03-10T00:44:50.545Z,12.83
2023-03-10T00:47:56.266Z,12.83
2023-03-10T00:51:00.513Z,12.81
2023-03-10T00:54:34.230Z,13.01
2023-03-10T00:58:18.001Z,13.02
2023-03-10T01:01:51.131Z,13.04
2023-03-10T01:04:38.783Z,13.04
2023-03-10T01:07:06.412Z,12.98
2023-03-10T01:09:35.163Z,13.11
2023-03-10T01:12:58.863Z,12.94
2023-03-10T01:16:41.980Z,13.14
2023-03-10T01:19:09.880Z,13.04
2023-03-10T01:21:39.148Z,13.26
2023-03-10T01:28:46.000Z,13.14
2023-03-10T01:32:21.369Z,13.23
2023-03-10T01:35:18.802Z,13.20
2023-03-10T01:37:49.224Z,13.33
2023-03-10T01:40:18.855Z,13.41
2023-03-10T01:43:49.725Z,13.42
2023-03-10T01:46:43.820Z,13.40
2023-03-10T01:49:58.596Z,13.03
2023-03-10T01:52:29.205Z,12.80
2023-03-10T01:59:34.761Z,13.27
2023-03-10T02:02:03.594Z,13.33
2023-03-10T02:04:43.110Z,13.04
2023-03-10T02:07:13.163Z,13.10
2023-03-10T02:10:10.428Z,13.00
2023-03-10T02:12:38.116Z,12.92
2023-03-10T02:15:07.018Z,12.86
2023-03-10T02:18:13.887Z,12.76
2023-03-10T02:20:50.397Z,12.62
2023-03-10T02:23:44.986Z,12.19
2023-03-10T02:26:57.701Z,12.44
2023-03-10T02:29:38.444Z,12.44
2023-03-10T02:34:11.759Z,12.70
2023-03-10T02:37:01.194Z,12.60
2023-03-10T02:39:30.404Z,12.44
2023-03-10T02:42:36.326Z,12.27
2023-03-10T02:49:13.701Z,12.79
2023-03-10T02:51:46.731Z,12.89
2023-03-10T02:54:17.675Z,12.56
2023-03-10T02:56:45.674Z,12.16
2023-03-10T03:04:25.023Z,12.67
2023-03-10T03:06:52.892Z,12.92
2023-03-10T03:17:07.899Z,12.93
2023-03-10T03:19:53.829Z,12.88
2023-03-10T03:22:23.834Z,12.84
2023-03-10T03:26:17.080Z,12.89
2023-03-10T03:28:45.776Z,12.74
2023-03-10T03:31:19.719Z,12.83
2023-03-10T03:34:38.369Z,12.96
2023-03-10T03:38:01.310Z,12.68
2023-03-10T03:40:36.338Z,12.61
2023-03-10T03:43:05.801Z,12.43
2023-03-10T03:45:36.176Z,12.62
2023-03-10T03:48:04.249Z,12.56
2023-03-10T03:50:34.514Z,12.18
2023-03-10T03:56:41.717Z,12.49
2023-03-10T03:59:11.693Z,12.38
2023-03-10T04:02:11.319Z,12.50
2023-03-10T04:04:39.533Z,12.66
2023-03-10T04:11:50.621Z,12.75
2023-03-10T04:14:29.622Z,12.75
2023-03-10T04:18:10.441Z,12.62
2023-03-10T04:20:39.121Z,12.62
2023-03-10T04:24:27.296Z,12.61
2023-03-10T04:27:09.534Z,12.37
2023-03-10T04:29:53.780Z,12.21
2023-03-10T04:33:30.278Z,12.28
2023-03-10T04:36:03.088Z,12.22
2023-03-10T04:38:30.876Z,12.44
2023-03-10T04:40:58.793Z,12.59
2023-03-10T04:44:29.846Z,12.72
2023-03-10T04:47:00.025Z,12.23
2023-03-10T04:49:28.200Z,12.11
2023-03-10T04:51:56.107Z,11.73
2023-03-10T04:54:24.341Z,11.86
2023-03-10T04:57:43.674Z,11.98
2023-03-10T05:00:13.659Z,11.78
2023-03-10T05:03:15.341Z,11.70
2023-03-10T05:05:44.021Z,11.74
2023-03-10T05:08:15.374Z,11.89
2023-03-10T05:10:44.586Z,11.99
2023-03-10T05:13:49.869Z,12.28
2023-03-10T05:16:26.793Z,12.32
2023-03-10T05:19:01.165Z,12.33
2023-03-10T05:21:42.673Z,12.26
2023-03-10T05:24:15.321Z,12.18
2023-03-10T05:26:45.415Z,12.29
2023-03-10T05:29:17.098Z,12.34
2023-03-10T05:31:52.831Z,12.16
2023-03-10T05:34:27.259Z,12.21
2023-03-10T05:37:06.288Z,11.56
2023-03-10T05:39:39.790Z,11.57
2023-03-10T05:42:33.988Z,11.80
2023-03-10T05:45:01.736Z,12.05
2023-03-10T05:47:29.572Z,12.20
2023-03-10T05:49:57.202Z,12.23
2023-03-10T05:52:25.652Z,12.04
2023-03-10T05:54:53.370Z,12.35
2023-03-10T05:57:21.062Z,12.35
2023-03-10T05:59:48.590Z,12.45
2023-03-10T06:02:16.265Z,12.38
2023-03-10T06:04:46.291Z,12.30
2023-03-10T06:07:13.926Z,12.22
2023-03-10T06:09:41.555Z,12.26
2023-03-10T06:12:09.386Z,12.17
2023-03-10T06:14:38.553Z,12.08
2023-03-10T06:17:06.119Z,12.28
2023-03-10T06:19:33.653Z,12.44
2023-03-10T06:22:01.206Z,12.46
2023-03-10T06:24:29.373Z,12.32
2023-03-10T06:26:57.077Z,12.73
2023-03-10T06:29:24.559Z,12.85
2023-03-10T06:31:52.261Z,12.92
2023-03-10T06:34:19.719Z,13.02
2023-03-10T06:36:47.175Z,12.90
2023-03-10T06:39:14.646Z,13.18
2023-03-10T06:41:42.128Z,13.29
2023-03-10T06:44:09.649Z,13.26
2023-03-10T06:46:37.223Z,13.06
2023-03-10T06:49:10.457Z,13.29
2023-03-10T06:51:40.693Z,13.41
2023-03-10T06:54:19.301Z,13.52
2023-03-10T06:57:45.451Z,13.58
2023-03-10T07:00:35.878Z,13.88
2023-03-10T07:03:06.838Z,14.09
2023-03-10T07:05:34.413Z,14.31
2023-03-10T07:08:02.030Z,14.17
2023-03-10T07:10:29.612Z,14.11
2023-03-10T07:12:59.191Z,14.39
2023-03-10T07:15:28.979Z,14.56
2023-03-10T07:17:56.639Z,14.54
2023-03-10T07:20:24.798Z,14.98
2023-03-10T07:22:52.575Z,15.22
2023-03-10T07:25:20.175Z,14.94
2023-03-10T07:27:49.048Z,15.16
2023-03-10T07:30:17.086Z,14.88
2023-03-10T07:32:44.797Z,15.20
2023-03-10T07:35:12.417Z,15.33
2023-03-10T07:37:40.853Z,15.37
2023-03-10T07:40:09.486Z,15.33
2023-03-10T07:42:37.036Z,15.95
2023-03-10T07:45:08.097Z,16.98
2023-03-10T07:47:35.774Z,18.26
2023-03-10T07:50:06.053Z,17.91
2023-03-10T07:52:33.689Z,19.58
2023-03-10T07:55:01.278Z,20.71
2023-03-10T07:57:37.186Z,21.26
2023-03-10T08:00:06.379Z,21.84
2023-03-10T08:02:46.868Z,20.63
2023-03-10T08:05:15.181Z,22.47
2023-03-10T08:07:44.999Z,23.25
2023-03-10T08:10:13.131Z,23.28
2023-03-10T08:12:43.802Z,22.82
2023-03-10T08:15:11.722Z,21.14
2023-03-10T08:17:39.312Z,20.81
2023-03-10T08:20:07.433Z,20.24
2023-03-10T08:22:35.448Z,19.43
2023-03-10T08:25:05.613Z,18.97
2023-03-10T08:27:36.541Z,18.67
2023-03-10T08:30:04.808Z,18.59
2023-03-10T08:32:34.207Z,19.36
2023-03-10T08:35:01.923Z,18.83
2023-03-10T08:37:29.406Z,17.17
2023-03-10T08:39:58.969Z,18.29
2023-03-10T08:42:26.865Z,19.10
2023-03-10T08:44:57.478Z,19.47
2023-03-10T08:47:28.093Z,18.71
2023-03-10T08:49:56.797Z,20.05
2023-03-10T08:52:24.672Z,22.51
2023-03-10T08:54:52.170Z,22.45
2023-03-10T08:57:19.672Z,23.10
2023-03-10T08:59:47.192Z,24.50
2023-03-10T09:02:15.423Z,24.34
2023-03-10T09:04:43.458Z,25.16
2023-03-10T09:07:10.949Z,23.37
2023-03-10T09:09:38.477Z,22.18
2023-03-10T09:12:08.976Z,19.55
2023-03-10T09:14:37.664Z,18.67
2023-03-10T09:17:06.250Z,18.52
2023-03-10T09:19:33.756Z,18.52
2023-03-10T09:22:01.533Z,19.56
2023-03-10T09:24:29.080Z,21.01
2023-03-10T09:26:56.591Z,21.90
2023-03-10T09:29:41.749Z,21.18
2023-03-10T09:32:10.755Z,22.90
2023-03-10T09:34:38.314Z,20.99
2023-03-10T09:37:08.373Z,22.81
2023-03-10T09:39:35.976Z,23.22
2023-03-10T09:42:25.524Z,21.73
2023-03-10T09:45:12.777Z,20.58
2023-03-10T09:47:46.133Z,21.60
2023-03-10T09:50:28.284Z,21.23
2023-03-10T09:53:19.265Z,22.52
2023-03-10T09:55:49.937Z,22.07
2023-03-10T09:58:31.627Z,19.58
2023-03-10T10:01:00.501Z,18.91
2023-03-10T10:03:51.421Z,20.27
2023-03-10T10:06:28.545Z,19.77
2023-03-10T10:09:05.107Z,18.44
2023-03-10T10:11:36.911Z,18.95
2023-03-10T10:14:29.820Z,19.15
2023-03-10T10:17:16.262Z,19.09
2023-03-10T10:19:47.989Z,18.74
2023-03-10T10:22:30.867Z,18.92
2023-03-10T10:25:16.251Z,18.67
2023-03-10T10:27:46.175Z,18.79
2023-03-10T10:30:30.018Z,19.74
2023-03-10T10:33:07.817Z,19.93
2023-03-10T10:35:41.067Z,19.72
2023-03-10T10:38:11.412Z,19.92
2023-03-10T10:41:05.817Z,20.92
2023-03-10T10:43:45.599Z,19.67
2023-03-10T10:46:15.510Z,20.31
2023-03-10T10:48:46.320Z,19.10
2023-03-10T10:51:29.120Z,19.22
2023-03-10T10:54:02.656Z,19.64
2023-03-10T10:56:31.195Z,21.19
2023-03-10T10:59:07.572Z,20.86
2023-03-10T11:01:56.331Z,20.37
2023-03-10T11:04:25.938Z,20.65
2023-03-10T11:07:07.725Z,21.33
2023-03-10T11:09:43.107Z,21.09
2023-03-10T11:12:22.183Z,20.45
2023-03-10T11:14:58.696Z,20.92
2023-03-10T11:17:48.709Z,20.72
2023-03-10T11:20:45.577Z,21.21
2023-03-10T11:23:52.610Z,21.05
2023-03-10T11:26:53.982Z,21.28
2023-03-10T11:29:41.700Z,21.69
2023-03-10T11:32:30.871Z,22.11
2023-03-10T11:35:10.935Z,22.04
2023-03-10T11:37:55.511Z,22.24
2023-03-10T11:40:39.716Z,21.59
2023-03-10T11:43:21.039Z,21.99
2023-03-10T11:45:54.765Z,21.86
2023-03-10T11:48:53.616Z,21.90
2023-03-10T11:51:30.165Z,21.80
2023-03-10T11:54:21.281Z,21.69
2023-03-10T11:56:50.791Z,21.88
2023-03-10T11:59:28.291Z,22.19
2023-03-10T12:02:16.072Z,21.95
2023-03-10T12:05:10.067Z,21.72
2023-03-10T12:07:44.392Z,21.85
2023-03-10T12:10:11.936Z,21.97
2023-03-10T12:12:44.917Z,21.75
2023-03-10T12:15:47.329Z,21.75
2023-03-10T12:18:15.028Z,21.64
2023-03-10T12:20:43.066Z,21.91
2023-03-10T12:23:10.854Z,21.71
2023-03-10T12:25:38.660Z,21.58
2023-03-10T12:28:27.936Z,21.76
2023-03-10T12:31:20.143Z,21.10
2023-03-10T12:33:50.539Z,21.07
2023-03-10T12:36:31.990Z,21.62
2023-03-10T12:39:20.612Z,21.46
2023-03-10T12:42:01.846Z,21.44
2023-03-10T12:44:50.239Z,20.91
2023-03-10T12:47:26.494Z,20.96
2023-03-10T12:50:53.274Z,20.94
2023-03-10T12:53:31.455Z,20.96
2023-03-10T12:56:12.181Z,21.02
2023-03-10T12:59:02.422Z,21.27
2023-03-10T13:01:46.233Z,21.06
2023-03-10T13:04:22.876Z,20.93
2023-03-10T13:07:03.634Z,20.77
2023-03-10T13:09:39.165Z,20.80
2023-03-10T13:12:55.744Z,20.85
2023-03-10T13:15:32.522Z,20.24
2023-03-10T13:18:16.861Z,20.21
2023-03-10T13:20:44.616Z,20.64
2023-03-10T13:23:35.767Z,20.47
2023-03-10T13:26:09.426Z,20.69
2023-03-10T13:28:39.329Z,20.35
2023-03-10T13:31:21.980Z,20.92
2023-03-10T13:33:53.876Z,20.87
2023-03-10T13:36:34.563Z,20.31
2023-03-10T13:39:17.529Z,20.60
2023-03-10T13:41:49.274Z,20.95
2023-03-10T13:44:38.866Z,20.89
2023-03-10T13:47:26.767Z,21.28
2023-03-10T13:49:58.626Z,21.32
2023-03-10T13:52:29.308Z,21.39
2023-03-10T13:55:14.713Z,21.11
2023-03-10T13:57:45.461Z,21.00
2023-03-10T14:00:20.561Z,20.84
2023-03-10T14:02:50.454Z,20.86
2023-03-10T14:05:37.987Z,20.93
2023-03-10T14:08:06.466Z,20.96
2023-03-10T14:10:34.134Z,20.83
2023-03-10T14:13:01.645Z,20.69
2023-03-10T14:15:38.259Z,20.45
2023-03-10T14:18:08.625Z,20.33
2023-03-10T14:20:43.250Z,20.40
2023-03-10T14:23:19.712Z,20.30
2023-03-10T14:25:49.260Z,20.81
2023-03-10T14:28:28.922Z,20.38
2023-03-10T14:30:56.807Z,20.48
2023-03-10T14:33:42.352Z,20.35
2023-03-10T14:36:14.584Z,20.61
2023-03-10T14:38:52.659Z,20.73
2023-03-10T14:41:24.239Z,20.69
2023-03-10T14:43:52.238Z,20.69
2023-03-10T14:46:20.058Z,19.75
2023-03-10T14:48:47.614Z,19.90
2023-03-10T14:51:34.697Z,19.80
2023-03-10T14:54:04.346Z,19.52
2023-03-10T14:56:33.019Z,19.73
2023-03-10T14:59:02.560Z,19.64
2023-03-10T15:01:30.716Z,19.40
2023-03-10T15:03:58.337Z,19.61
2023-03-10T15:06:25.868Z,19.73
2023-03-10T15:08:53.302Z,19.73
2023-03-10T15:11:34.393Z,19.83
2023-03-10T15:14:18.899Z,19.71
2023-03-10T15:16:46.581Z,19.73
2023-03-10T15:19:25.830Z,19.95
2023-03-10T15:21:54.050Z,20.06
2023-03-10T15:24:21.535Z,19.81
2023-03-10T15:26:49.155Z,19.73
2023-03-10T15:29:17.782Z,19.64
2023-03-10T15:31:45.890Z,19.41
2023-03-10T15:34:15.912Z,19.25
2023-03-10T15:36:43.646Z,19.64
2023-03-10T15:39:14.224Z,19.67
2023-03-10T15:41:46.349Z,19.60
2023-03-10T15:44:16.183Z,19.56
2023-03-10T15:46:45.873Z,19.42
2023-03-10T15:49:13.644Z,19.33
2023-03-10T15:51:41.229Z,19.24
2023-03-10T15:54:12.468Z,19.28
2023-03-10T15:56:40.023Z,19.08
2023-03-10T15:59:08.313Z,19.17
2023-03-10T16:01:35.987Z,18.87
2023-03-10T16:04:05.942Z,18.80
2023-03-10T16:06:34.412Z,18.90
2023-03-10T16:09:02.005Z,18.85
2023-03-10T16:11:29.574Z,18.83
2023-03-10T16:13:57.129Z,18.90
2023-03-10T16:16:26.490Z,18.61
2023-03-10T16:18:54.203Z,18.84
2023-03-10T16:21:22.120Z,18.70
2023-03-10T16:23:50.041Z,18.96
2023-03-10T16:26:22.484Z,18.78
2023-03-10T16:28:53.086Z,18.59
2023-03-10T16:31:24.654Z,18.58
2023-03-10T16:33:53.227Z,18.36
2023-03-10T16:36:25.815Z,18.24
2023-03-10T16:38:56.482Z,18.21
2023-03-10T16:41:29.804Z,18.22
2023-03-10T16:44:05.696Z,18.23
2023-03-10T16:46:36.068Z,18.22
2023-03-10T16:49:04.057Z,17.92
2023-03-10T16:51:51.139Z,17.88
2023-03-10T16:54:22.052Z,17.79
2023-03-10T16:57:01.468Z,17.68
2023-03-10T16:59:30.425Z,17.68
2023-03-10T17:02:16.747Z,17.61
2023-03-10T17:04:49.307Z,17.57
2023-03-10T17:07:19.055Z,17.58
2023-03-10T17:09:51.462Z,17.48
2023-03-10T17:12:19.013Z,17.38
2023-03-10T17:14:46.771Z,17.34
2023-03-10T17:17:14.372Z,17.32
2023-03-10T17:19:41.915Z,17.13
2023-03-10T17:22:09.426Z,17.13
2023-03-10T17:24:37.064Z,17.05
2023-03-10T17:27:06.634Z,16.99
2023-03-10T17:29:34.204Z,17.07
2023-03-10T17:32:01.948Z,16.89
2023-03-10T17:34:30.734Z,16.72
2023-03-10T17:37:09.808Z,16.79
2023-03-10T17:39:37.366Z,16.54
2023-03-10T17:42:06.782Z,16.59
2023-03-10T17:48:52.929Z,16.60
2023-03-10T17:59:54.741Z,16.53
2023-03-10T18:03:48.069Z,16.64
2023-03-10T18:10:11.920Z,16.60
2023-03-10T18:13:24.460Z,16.46
2023-03-10T18:16:31.480Z,16.18
2023-03-10T18:19:19.183Z,16.30
2023-03-10T18:22:06.492Z,16.23
2023-03-10T18:24:44.019Z,16.13
2023-03-10T18:27:34.036Z,15.99
2023-03-10T18:30:30.169Z,16.05
2023-03-10T18:32:58.158Z,15.91
2023-03-10T18:35:28.768Z,16.09
2023-03-10T18:38:04.054Z,16.03
2023-03-10T18:40:31.881Z,16.09
2023-03-10T18:43:40.192Z,16.00
2023-03-10T18:46:33.032Z,15.94
2023-03-10T18:49:00.805Z,15.96
2023-03-10T18:51:36.527Z,15.80
2023-03-10T18:54:07.067Z,15.93
2023-03-10T18:56:56.682Z,16.02
2023-03-10T18:59:32.032Z,16.08
2023-03-10T19:01:59.902Z,16.11
2023-03-10T19:04:39.867Z,16.19
2023-03-10T19:07:14.842Z,16.10
2023-03-10T19:09:47.575Z,16.08
2023-03-10T19:12:21.530Z,16.23
2023-03-10T19:14:56.078Z,16.18
2023-03-10T19:17:26.494Z,16.06
2023-03-10T19:19:54.102Z,16.08
2023-03-10T19:22:21.629Z,16.09
2023-03-10T19:24:49.375Z,16.10
2023-03-10T19:27:17.021Z,15.92
2023-03-10T19:29:44.748Z,16.03
2023-03-10T19:32:12.292Z,15.65
2023-03-10T19:34:39.823Z,15.67
2023-03-10T19:37:07.403Z,15.75
2023-03-10T19:39:37.440Z,15.76
2023-03-10T19:42:05.296Z,15.83
2023-03-10T19:44:35.574Z,15.54
2023-03-10T19:47:03.268Z,15.84
2023-03-10T19:49:34.270Z,15.63
2023-03-10T19:52:05.007Z,15.80
2023-03-10T19:54:32.583Z,15.80
2023-03-10T19:57:00.177Z,15.65
2023-03-10T19:59:27.760Z,15.69
2023-03-10T20:01:55.466Z,15.58
2023-03-10T20:04:22.984Z,15.59
2023-03-10T20:06:53.756Z,15.39
2023-03-10T20:09:24.711Z,15.55
2023-03-10T20:11:53.038Z,15.46
2023-03-10T20:14:20.531Z,15.50
2023-03-10T20:16:54.274Z,15.56
2023-03-10T20:19:46.064Z,15.53
2023-03-10T20:22:15.261Z,15.47
2023-03-10T20:24:42.901Z,15.56
2023-03-10T20:30:03.852Z,15.49
2023-03-10T20:32:33.996Z,15.41
2023-03-10T20:35:29.709Z,15.34
2023-03-10T20:38:06.408Z,15.48
2023-03-10T20:40:44.533Z,15.62
2023-03-10T20:43:14.835Z,15.62
2023-03-10T20:45:44.563Z,15.49
2023-03-10T20:48:12.028Z,15.42
2023-03-10T20:50:41.773Z,15.53
2023-03-10T20:53:10.455Z,15.42
2023-03-10T20:55:42.072Z,15.23
2023-03-10T20:58:09.648Z,15.15
2023-03-10T21:00:37.216Z,15.26
2023-03-10T21:03:05.294Z,15.36
2023-03-10T21:05:33.022Z,15.06
2023-03-10T21:08:00.586Z,15.33
2023-03-10T21:10:28.197Z,15.01
2023-03-10T21:12:55.800Z,15.06
2023-03-10T21:15:24.336Z,14.93
2023-03-10T21:17:51.952Z,14.79
2023-03-10T21:20:22.100Z,14.75
2023-03-10T21:22:53.108Z,14.74
2023-03-10T21:25:39.025Z,14.85
2023-03-10T21:28:06.730Z,14.76
2023-03-10T21:30:35.390Z,14.88
2023-03-10T21:33:03.204Z,14.76
2023-03-10T21:35:36.800Z,14.45
2023-03-10T21:38:04.611Z,14.38
2023-03-10T21:40:32.298Z,14.29
2023-03-10T21:43:02.567Z,14.43
2023-03-10T21:45:30.351Z,14.21
2023-03-10T21:47:57.786Z,14.13
2023-03-10T21:50:25.349Z,14.12
2023-03-10T21:52:53.705Z,14.14
2023-03-10T21:55:23.852Z,14.05
2023-03-10T21:57:52.040Z,14.05
2023-03-10T22:00:23.309Z,14.23
2023-03-10T22:02:52.819Z,14.12
2023-03-10T22:05:21.043Z,14.08
2023-03-10T22:07:48.724Z,14.22
2023-03-10T22:10:17.364Z,14.07
2023-03-10T22:12:44.988Z,13.96
2023-03-10T22:15:21.667Z,14.01
2023-03-10T22:17:49.514Z,14.02
2023-03-10T22:20:21.341Z,13.82
2023-03-10T22:22:49.008Z,14.01
2023-03-10T22:25:17.562Z,13.92
2023-03-10T22:27:52.161Z,13.79
2023-03-10T22:30:21.419Z,13.84
2023-03-10T22:32:49.465Z,13.89
2023-03-10T22:35:18.024Z,13.79
2023-03-10T22:37:45.729Z,13.80
2023-03-10T22:40:16.331Z,13.60
2023-03-10T22:42:45.037Z,13.80
2023-03-10T22:45:22.287Z,13.59
2023-03-10T22:47:52.379Z,13.63
2023-03-10T22:50:26.923Z,13.61
2023-03-10T22:52:54.370Z,13.53
2023-03-10T22:55:24.907Z,13.60
2023-03-10T22:57:53.778Z,13.71
2023-03-10T23:00:22.186Z,13.78
2023-03-10T23:02:50.664Z,13.69
2023-03-10T23:05:21.384Z,13.86
2023-03-10T23:07:49.405Z,13.73
2023-03-10T23:10:22.149Z,13.66
2023-03-10T23:12:50.367Z,13.54
2023-03-10T23:15:25.777Z,13.75
2023-03-10T23:17:55.134Z,13.89
2023-03-10T23:20:28.320Z,13.78
2023-03-10T23:22:57.800Z,13.79
2023-03-10T23:25:31.540Z,13.74
2023-03-10T23:27:59.899Z,13.83
2023-03-10T23:30:28.653Z,13.69
2023-03-10T23:32:56.748Z,13.84
2023-03-10T23:35:30.186Z,13.83
2023-03-10T23:37:58.387Z,13.70
2023-03-10T23:40:27.701Z,13.78
2023-03-10T23:42:57.003Z,13.60
2023-03-10T23:45:27.074Z,13.51
2023-03-10T23:47:55.671Z,13.70
2023-03-10T23:50:29.272Z,13.78
2023-03-10T23:52:57.590Z,13.67
2023-03-10T23:55:30.180Z,13.75
2023-03-10T23:57:58.276Z,13.74
